sensor_id;sensor_type;location;lat;lon;timestamp;P1;durP1;ratioP1;P2;durP2;ratioP2
3875;SDS011;1953;51.222;6.624;2023-04-25T00:04:38;19.83;;;6.80;;
3875;SDS011;1953;51.222;6.624;2023-04-25T00:11:07;19.07;;;6.87;;
3875;SDS011;1953;51.222;6.624;2023-04-25T00:15:50;22.27;;;7.93;;
3875;SDS011;1953;51.222;6.624;2023-04-25T00:20:33;15.20;;;6.40;;
3875;SDS011;1953;51.222;6.624;2023-04-25T00:25:17;18.40;;;6.43;;
3875;SDS011;1953;51.222;6.624;2023-04-25T00:30:01;18.63;;;6.30;;
3875;SDS011;1953;51.222;6.624;2023-04-25T00:34:44;25.63;;;6.67;;
3875;SDS011;1953;51.222;6.624;2023-04-25T00:39:26;19.97;;;7.33;;
3875;SDS011;1953;51.222;6.624;2023-04-25T00:44:09;22.70;;;7.80;;
3875;SDS011;1953;51.222;6.624;2023-04-25T00:48:55;17.10;;;6.77;;
3875;SDS011;1953;51.222;6.624;2023-04-25T00:53:37;16.00;;;6.73;;
3875;SDS011;1953;51.222;6.624;2023-04-25T00:58:21;22.97;;;7.00;;
3875;SDS011;1953;51.222;6.624;2023-04-25T01:03:04;15.57;;;6.60;;
3875;SDS011;1953;51.222;6.624;2023-04-25T01:07:48;20.87;;;6.70;;
3875;SDS011;1953;51.222;6.624;2023-04-25T01:12:31;12.50;;;5.57;;
3875;SDS011;1953;51.222;6.624;2023-04-25T01:17:14;12.30;;;5.23;;
3875;SDS011;1953;51.222;6.624;2023-04-25T01:21:58;20.60;;;6.33;;
3875;SDS011;1953;51.222;6.624;2023-04-25T01:26:40;13.60;;;6.20;;
3875;SDS011;1953;51.222;6.624;2023-04-25T01:31:30;13.50;;;6.17;;
3875;SDS011;1953;51.222;6.624;2023-04-25T01:36:14;14.70;;;5.83;;
3875;SDS011;1953;51.222;6.624;2023-04-25T01:40:58;14.70;;;6.50;;
3875;SDS011;1953;51.222;6.624;2023-04-25T01:45:41;21.03;;;6.13;;
3875;SDS011;1953;51.222;6.624;2023-04-25T01:50:24;20.83;;;7.50;;
3875;SDS011;1953;51.222;6.624;2023-04-25T01:55:07;12.70;;;6.60;;
3875;SDS011;1953;51.222;6.624;2023-04-25T01:59:52;16.70;;;6.40;;
3875;SDS011;1953;51.222;6.624;2023-04-25T02:04:38;13.23;;;6.10;;
3875;SDS011;1953;51.222;6.624;2023-04-25T02:09:21;13.03;;;6.30;;
3875;SDS011;1953;51.222;6.624;2023-04-25T02:14:04;9.70;;;5.37;;
3875;SDS011;1953;51.222;6.624;2023-04-25T02:18:48;16.97;;;6.53;;
3875;SDS011;1953;51.222;6.624;2023-04-25T02:23:33;11.90;;;5.80;;
3875;SDS011;1953;51.222;6.624;2023-04-25T02:28:16;16.87;;;5.67;;
3875;SDS011;1953;51.222;6.624;2023-04-25T02:32:58;14.50;;;6.10;;
3875;SDS011;1953;51.222;6.624;2023-04-25T02:37:42;15.67;;;5.77;;
3875;SDS011;1953;51.222;6.624;2023-04-25T02:42:25;14.07;;;6.10;;
3875;SDS011;1953;51.222;6.624;2023-04-25T02:47:08;14.90;;;6.97;;
3875;SDS011;1953;51.222;6.624;2023-04-25T02:51:50;14.80;;;6.60;;
3875;SDS011;1953;51.222;6.624;2023-04-25T02:56:34;18.20;;;7.10;;
3875;SDS011;1953;51.222;6.624;2023-04-25T03:01:17;15.13;;;7.47;;
3875;SDS011;1953;51.222;6.624;2023-04-25T03:05:59;15.90;;;6.37;;
3875;SDS011;1953;51.222;6.624;2023-04-25T03:10:42;18.30;;;6.37;;
3875;SDS011;1953;51.222;6.624;2023-04-25T03:15:26;16.93;;;7.10;;
3875;SDS011;1953;51.222;6.624;2023-04-25T03:20:09;18.77;;;6.50;;
3875;SDS011;1953;51.222;6.624;2023-04-25T03:24:52;14.37;;;7.00;;
3875;SDS011;1953;51.222;6.624;2023-04-25T03:29:35;26.97;;;7.37;;
3875;SDS011;1953;51.222;6.624;2023-04-25T03:34:19;13.90;;;5.93;;
3875;SDS011;1953;51.222;6.624;2023-04-25T03:39:02;18.10;;;7.57;;
3875;SDS011;1953;51.222;6.624;2023-04-25T03:43:44;25.93;;;7.93;;
3875;SDS011;1953;51.222;6.624;2023-04-25T03:48:27;17.47;;;8.33;;
3875;SDS011;1953;51.222;6.624;2023-04-25T03:53:11;27.03;;;7.53;;
3875;SDS011;1953;51.222;6.624;2023-04-25T03:57:53;15.03;;;7.90;;
3875;SDS011;1953;51.222;6.624;2023-04-25T04:02:36;23.70;;;8.80;;
3875;SDS011;1953;51.222;6.624;2023-04-25T04:07:19;20.37;;;6.90;;
3875;SDS011;1953;51.222;6.624;2023-04-25T04:12:03;19.80;;;7.60;;
3875;SDS011;1953;51.222;6.624;2023-04-25T04:16:46;20.53;;;7.43;;
3875;SDS011;1953;51.222;6.624;2023-04-25T04:21:28;16.00;;;6.53;;
3875;SDS011;1953;51.222;6.624;2023-04-25T04:26:12;18.80;;;8.00;;
3875;SDS011;1953;51.222;6.624;2023-04-25T04:30:57;23.33;;;7.50;;
3875;SDS011;1953;51.222;6.624;2023-04-25T04:35:41;16.80;;;8.27;;
3875;SDS011;1953;51.222;6.624;2023-04-25T04:40:24;27.67;;;7.33;;
3875;SDS011;1953;51.222;6.624;2023-04-25T04:45:07;26.10;;;7.70;;
3875;SDS011;1953;51.222;6.624;2023-04-25T04:49:52;23.07;;;8.00;;
3875;SDS011;1953;51.222;6.624;2023-04-25T04:54:34;20.57;;;8.10;;
3875;SDS011;1953;51.222;6.624;2023-04-25T04:59:17;26.53;;;7.50;;
3875;SDS011;1953;51.222;6.624;2023-04-25T05:03:59;20.43;;;7.93;;
3875;SDS011;1953;51.222;6.624;2023-04-25T05:08:44;22.10;;;8.03;;
3875;SDS011;1953;51.222;6.624;2023-04-25T05:13:27;28.23;;;7.50;;
3875;SDS011;1953;51.222;6.624;2023-04-25T05:18:09;18.73;;;7.83;;
3875;SDS011;1953;51.222;6.624;2023-04-25T05:22:52;17.90;;;8.23;;
3875;SDS011;1953;51.222;6.624;2023-04-25T05:27:36;18.77;;;7.70;;
3875;SDS011;1953;51.222;6.624;2023-04-25T05:32:18;28.07;;;8.83;;
3875;SDS011;1953;51.222;6.624;2023-04-25T05:37:01;22.07;;;8.67;;
3875;SDS011;1953;51.222;6.624;2023-04-25T05:41:43;22.33;;;8.27;;
3875;SDS011;1953;51.222;6.624;2023-04-25T05:46:27;21.73;;;7.53;;
3875;SDS011;1953;51.222;6.624;2023-04-25T05:51:10;23.03;;;8.73;;
3875;SDS011;1953;51.222;6.624;2023-04-25T05:55:52;20.17;;;7.73;;
3875;SDS011;1953;51.222;6.624;2023-04-25T06:00:35;25.90;;;7.47;;
3875;SDS011;1953;51.222;6.624;2023-04-25T06:05:19;13.70;;;7.23;;
3875;SDS011;1953;51.222;6.624;2023-04-25T06:10:02;24.27;;;7.63;;
3875;SDS011;1953;51.222;6.624;2023-04-25T06:14:47;21.03;;;6.83;;
3875;SDS011;1953;51.222;6.624;2023-04-25T06:19:29;16.93;;;7.07;;
3875;SDS011;1953;51.222;6.624;2023-04-25T06:24:13;11.93;;;6.27;;
3875;SDS011;1953;51.222;6.624;2023-04-25T06:28:55;20.67;;;6.57;;
3875;SDS011;1953;51.222;6.624;2023-04-25T06:33:38;23.30;;;6.43;;
3875;SDS011;1953;51.222;6.624;2023-04-25T06:38:21;14.30;;;6.50;;
3875;SDS011;1953;51.222;6.624;2023-04-25T06:43:04;19.87;;;7.03;;
3875;SDS011;1953;51.222;6.624;2023-04-25T06:47:47;16.40;;;6.33;;
3875;SDS011;1953;51.222;6.624;2023-04-25T06:52:30;22.30;;;7.17;;
3875;SDS011;1953;51.222;6.624;2023-04-25T06:57:12;23.07;;;7.67;;
3875;SDS011;1953;51.222;6.624;2023-04-25T07:01:56;21.27;;;6.73;;
3875;SDS011;1953;51.222;6.624;2023-04-25T07:06:39;18.07;;;5.77;;
3875;SDS011;1953;51.222;6.624;2023-04-25T07:11:23;14.83;;;5.27;;
3875;SDS011;1953;51.222;6.624;2023-04-25T07:16:06;21.90;;;6.47;;
3875;SDS011;1953;51.222;6.624;2023-04-25T07:20:50;18.30;;;6.10;;
3875;SDS011;1953;51.222;6.624;2023-04-25T07:25:32;17.13;;;5.90;;
3875;SDS011;1953;51.222;6.624;2023-04-25T07:30:15;17.83;;;5.60;;
3875;SDS011;1953;51.222;6.624;2023-04-25T07:34:58;20.67;;;5.90;;
3875;SDS011;1953;51.222;6.624;2023-04-25T07:39:43;8.83;;;4.37;;
3875;SDS011;1953;51.222;6.624;2023-04-25T07:44:27;16.47;;;4.43;;
3875;SDS011;1953;51.222;6.624;2023-04-25T07:49:11;14.70;;;5.20;;
3875;SDS011;1953;51.222;6.624;2023-04-25T07:53:54;21.57;;;4.80;;
3875;SDS011;1953;51.222;6.624;2023-04-25T07:58:38;18.87;;;4.90;;
3875;SDS011;1953;51.222;6.624;2023-04-25T08:03:20;20.00;;;5.20;;
3875;SDS011;1953;51.222;6.624;2023-04-25T08:08:03;16.70;;;5.60;;
3875;SDS011;1953;51.222;6.624;2023-04-25T08:12:47;14.33;;;4.73;;
3875;SDS011;1953;51.222;6.624;2023-04-25T08:17:30;14.20;;;4.07;;
3875;SDS011;1953;51.222;6.624;2023-04-25T08:22:13;14.67;;;4.20;;
3875;SDS011;1953;51.222;6.624;2023-04-25T08:26:56;12.23;;;4.20;;
3875;SDS011;1953;51.222;6.624;2023-04-25T08:31:39;17.07;;;4.20;;
3875;SDS011;1953;51.222;6.624;2023-04-25T08:36:23;13.23;;;4.17;;
3875;SDS011;1953;51.222;6.624;2023-04-25T08:41:06;7.80;;;3.33;;
3875;SDS011;1953;51.222;6.624;2023-04-25T08:45:48;10.93;;;3.40;;
3875;SDS011;1953;51.222;6.624;2023-04-25T08:50:32;13.27;;;3.60;;
3875;SDS011;1953;51.222;6.624;2023-04-25T08:55:16;6.13;;;2.80;;
3875;SDS011;1953;51.222;6.624;2023-04-25T08:59:59;6.27;;;3.37;;
3875;SDS011;1953;51.222;6.624;2023-04-25T09:04:43;6.77;;;2.93;;
3875;SDS011;1953;51.222;6.624;2023-04-25T09:09:26;6.90;;;3.00;;
3875;SDS011;1953;51.222;6.624;2023-04-25T09:14:14;9.80;;;2.50;;
3875;SDS011;1953;51.222;6.624;2023-04-25T09:18:58;15.13;;;3.37;;
3875;SDS011;1953;51.222;6.624;2023-04-25T09:23:41;6.80;;;2.70;;
3875;SDS011;1953;51.222;6.624;2023-04-25T09:28:26;8.10;;;2.60;;
3875;SDS011;1953;51.222;6.624;2023-04-25T09:33:10;8.67;;;2.40;;
3875;SDS011;1953;51.222;6.624;2023-04-25T09:37:55;4.90;;;2.33;;
3875;SDS011;1953;51.222;6.624;2023-04-25T09:42:40;6.30;;;2.17;;
3875;SDS011;1953;51.222;6.624;2023-04-25T09:47:24;14.90;;;2.50;;
3875;SDS011;1953;51.222;6.624;2023-04-25T09:52:09;4.57;;;2.40;;
3875;SDS011;1953;51.222;6.624;2023-04-25T09:56:55;7.43;;;2.70;;
3875;SDS011;1953;51.222;6.624;2023-04-25T10:01:39;9.30;;;2.63;;
3875;SDS011;1953;51.222;6.624;2023-04-25T10:06:22;4.13;;;2.80;;
3875;SDS011;1953;51.222;6.624;2023-04-25T10:11:08;6.13;;;2.50;;
3875;SDS011;1953;51.222;6.624;2023-04-25T10:15:51;7.97;;;2.60;;
3875;SDS011;1953;51.222;6.624;2023-04-25T10:20:35;4.13;;;2.30;;
3875;SDS011;1953;51.222;6.624;2023-04-25T10:25:18;8.90;;;2.53;;
3875;SDS011;1953;51.222;6.624;2023-04-25T10:30:03;8.10;;;2.80;;
3875;SDS011;1953;51.222;6.624;2023-04-25T10:34:47;7.77;;;3.10;;
3875;SDS011;1953;51.222;6.624;2023-04-25T10:39:30;8.70;;;3.00;;
3875;SDS011;1953;51.222;6.624;2023-04-25T10:44:14;9.17;;;2.77;;
3875;SDS011;1953;51.222;6.624;2023-04-25T10:48:59;10.13;;;3.43;;
3875;SDS011;1953;51.222;6.624;2023-04-25T10:53:43;6.10;;;2.80;;
3875;SDS011;1953;51.222;6.624;2023-04-25T10:58:26;6.93;;;2.80;;
3875;SDS011;1953;51.222;6.624;2023-04-25T11:03:08;6.38;;;3.00;;
3875;SDS011;1953;51.222;6.624;2023-04-25T11:07:52;12.03;;;3.20;;
3875;SDS011;1953;51.222;6.624;2023-04-25T11:12:38;5.57;;;2.83;;
3875;SDS011;1953;51.222;6.624;2023-04-25T11:17:20;6.80;;;3.00;;
3875;SDS011;1953;51.222;6.624;2023-04-25T11:22:07;5.13;;;2.90;;
3875;SDS011;1953;51.222;6.624;2023-04-25T11:26:51;5.30;;;2.37;;
3875;SDS011;1953;51.222;6.624;2023-04-25T11:31:33;7.77;;;3.63;;
3875;SDS011;1953;51.222;6.624;2023-04-25T11:36:16;11.03;;;3.23;;
3875;SDS011;1953;51.222;6.624;2023-04-25T11:40:58;7.47;;;3.03;;
3875;SDS011;1953;51.222;6.624;2023-04-25T11:45:42;11.17;;;3.20;;
3875;SDS011;1953;51.222;6.624;2023-04-25T11:50:28;7.17;;;2.50;;
3875;SDS011;1953;51.222;6.624;2023-04-25T11:55:12;3.30;;;2.20;;
3875;SDS011;1953;51.222;6.624;2023-04-25T11:59:55;11.77;;;2.90;;
3875;SDS011;1953;51.222;6.624;2023-04-25T12:04:50;8.10;;;2.90;;
3875;SDS011;1953;51.222;6.624;2023-04-25T12:12:09;8.67;;;3.27;;
3875;SDS011;1953;51.222;6.624;2023-04-25T12:16:52;6.00;;;2.40;;
3875;SDS011;1953;51.222;6.624;2023-04-25T12:21:37;6.17;;;2.57;;
3875;SDS011;1953;51.222;6.624;2023-04-25T12:26:20;3.77;;;2.57;;
3875;SDS011;1953;51.222;6.624;2023-04-25T12:31:04;4.17;;;2.10;;
3875;SDS011;1953;51.222;6.624;2023-04-25T12:35:49;4.10;;;2.03;;
3875;SDS011;1953;51.222;6.624;2023-04-25T12:40:31;3.60;;;2.07;;
3875;SDS011;1953;51.222;6.624;2023-04-25T12:45:14;3.30;;;2.10;;
3875;SDS011;1953;51.222;6.624;2023-04-25T12:49:58;5.70;;;2.23;;
3875;SDS011;1953;51.222;6.624;2023-04-25T12:54:40;4.67;;;2.60;;
3875;SDS011;1953;51.222;6.624;2023-04-25T12:59:23;4.77;;;1.97;;
3875;SDS011;1953;51.222;6.624;2023-04-25T13:04:05;4.43;;;2.07;;
3875;SDS011;1953;51.222;6.624;2023-04-25T13:08:49;9.10;;;2.47;;
3875;SDS011;1953;51.222;6.624;2023-04-25T13:13:32;4.03;;;2.20;;
3875;SDS011;1953;51.222;6.624;2023-04-25T13:18:15;8.83;;;2.17;;
3875;SDS011;1953;51.222;6.624;2023-04-25T13:22:58;5.40;;;2.00;;
3875;SDS011;1953;51.222;6.624;2023-04-25T13:27:42;4.10;;;1.80;;
3875;SDS011;1953;51.222;6.624;2023-04-25T13:32:25;2.87;;;2.00;;
3875;SDS011;1953;51.222;6.624;2023-04-25T13:37:07;3.23;;;1.93;;
3875;SDS011;1953;51.222;6.624;2023-04-25T13:41:50;8.33;;;2.10;;
3875;SDS011;1953;51.222;6.624;2023-04-25T13:46:34;4.73;;;1.70;;
3875;SDS011;1953;51.222;6.624;2023-04-25T13:51:17;2.73;;;2.33;;
3875;SDS011;1953;51.222;6.624;2023-04-25T13:56:01;6.23;;;3.10;;
3875;SDS011;1953;51.222;6.624;2023-04-25T14:00:43;3.87;;;2.60;;
3875;SDS011;1953;51.222;6.624;2023-04-25T14:05:28;6.10;;;2.60;;
3875;SDS011;1953;51.222;6.624;2023-04-25T14:10:11;3.87;;;2.30;;
3875;SDS011;1953;51.222;6.624;2023-04-25T14:14:54;5.93;;;2.80;;
3875;SDS011;1953;51.222;6.624;2023-04-25T14:19:36;4.37;;;2.57;;
3875;SDS011;1953;51.222;6.624;2023-04-25T14:24:25;7.33;;;3.30;;
3875;SDS011;1953;51.222;6.624;2023-04-25T14:29:07;5.70;;;3.60;;
3875;SDS011;1953;51.222;6.624;2023-04-25T14:33:52;10.33;;;3.50;;
3875;SDS011;1953;51.222;6.624;2023-04-25T14:38:36;5.93;;;3.00;;
3875;SDS011;1953;51.222;6.624;2023-04-25T14:43:20;3.03;;;2.60;;
3875;SDS011;1953;51.222;6.624;2023-04-25T14:48:02;3.67;;;2.63;;
3875;SDS011;1953;51.222;6.624;2023-04-25T14:52:45;13.00;;;5.60;;
3875;SDS011;1953;51.222;6.624;2023-04-25T14:57:28;8.00;;;4.33;;
3875;SDS011;1953;51.222;6.624;2023-04-25T15:02:12;15.63;;;3.87;;
3875;SDS011;1953;51.222;6.624;2023-04-25T15:06:55;17.33;;;8.10;;
3875;SDS011;1953;51.222;6.624;2023-04-25T15:11:38;11.70;;;2.60;;
3875;SDS011;1953;51.222;6.624;2023-04-25T15:16:20;4.00;;;2.30;;
3875;SDS011;1953;51.222;6.624;2023-04-25T15:21:04;4.20;;;1.93;;
3875;SDS011;1953;51.222;6.624;2023-04-25T15:25:49;6.93;;;2.53;;
3875;SDS011;1953;51.222;6.624;2023-04-25T15:30:32;3.17;;;2.50;;
3875;SDS011;1953;51.222;6.624;2023-04-25T15:35:16;5.23;;;2.67;;
3875;SDS011;1953;51.222;6.624;2023-04-25T15:40:00;7.93;;;2.90;;
3875;SDS011;1953;51.222;6.624;2023-04-25T15:44:47;5.67;;;2.43;;
3875;SDS011;1953;51.222;6.624;2023-04-25T15:49:29;6.73;;;2.23;;
3875;SDS011;1953;51.222;6.624;2023-04-25T15:54:12;4.63;;;2.30;;
3875;SDS011;1953;51.222;6.624;2023-04-25T15:58:56;5.90;;;2.40;;
3875;SDS011;1953;51.222;6.624;2023-04-25T16:03:39;7.30;;;1.93;;
3875;SDS011;1953;51.222;6.624;2023-04-25T16:08:21;4.73;;;2.10;;
3875;SDS011;1953;51.222;6.624;2023-04-25T16:13:05;2.87;;;1.73;;
3875;SDS011;1953;51.222;6.624;2023-04-25T16:17:49;2.90;;;2.17;;
3875;SDS011;1953;51.222;6.624;2023-04-25T16:22:31;5.40;;;2.43;;
3875;SDS011;1953;51.222;6.624;2023-04-25T16:27:14;5.40;;;2.73;;
3875;SDS011;1953;51.222;6.624;2023-04-25T16:31:57;5.33;;;2.70;;
3875;SDS011;1953;51.222;6.624;2023-04-25T16:36:41;4.00;;;2.50;;
3875;SDS011;1953;51.222;6.624;2023-04-25T16:41:24;4.10;;;2.57;;
3875;SDS011;1953;51.222;6.624;2023-04-25T16:46:07;8.80;;;2.60;;
3875;SDS011;1953;51.222;6.624;2023-04-25T16:50:49;4.10;;;2.30;;
3875;SDS011;1953;51.222;6.624;2023-04-25T16:55:34;4.27;;;2.20;;
3875;SDS011;1953;51.222;6.624;2023-04-25T17:00:16;4.13;;;2.53;;
3875;SDS011;1953;51.222;6.624;2023-04-25T17:04:59;3.33;;;2.40;;
3875;SDS011;1953;51.222;6.624;2023-04-25T17:09:42;10.60;;;2.53;;
3875;SDS011;1953;51.222;6.624;2023-04-25T17:14:26;4.80;;;2.70;;
3875;SDS011;1953;51.222;6.624;2023-04-25T17:19:09;4.20;;;2.43;;
3875;SDS011;1953;51.222;6.624;2023-04-25T17:23:52;3.40;;;2.87;;
3875;SDS011;1953;51.222;6.624;2023-04-25T17:28:34;5.90;;;3.17;;
3875;SDS011;1953;51.222;6.624;2023-04-25T17:33:18;3.53;;;2.43;;
3875;SDS011;1953;51.222;6.624;2023-04-25T17:38:02;7.90;;;4.03;;
3875;SDS011;1953;51.222;6.624;2023-04-25T17:42:44;4.03;;;2.40;;
3875;SDS011;1953;51.222;6.624;2023-04-25T17:47:27;3.60;;;2.37;;
3875;SDS011;1953;51.222;6.624;2023-04-25T17:52:11;5.57;;;2.60;;
3875;SDS011;1953;51.222;6.624;2023-04-25T17:56:54;6.90;;;2.70;;
3875;SDS011;1953;51.222;6.624;2023-04-25T18:01:36;11.50;;;2.80;;
3875;SDS011;1953;51.222;6.624;2023-04-25T18:06:19;8.07;;;3.23;;
3875;SDS011;1953;51.222;6.624;2023-04-25T18:11:03;7.47;;;3.20;;
3875;SDS011;1953;51.222;6.624;2023-04-25T18:15:46;10.33;;;3.83;;
3875;SDS011;1953;51.222;6.624;2023-04-25T18:20:29;7.30;;;3.37;;
3875;SDS011;1953;51.222;6.624;2023-04-25T18:25:12;8.13;;;3.50;;
3875;SDS011;1953;51.222;6.624;2023-04-25T18:29:56;6.00;;;3.03;;
3875;SDS011;1953;51.222;6.624;2023-04-25T18:34:39;6.17;;;2.87;;
3875;SDS011;1953;51.222;6.624;2023-04-25T18:39:23;6.20;;;3.33;;
3875;SDS011;1953;51.222;6.624;2023-04-25T18:44:06;5.70;;;3.60;;
3875;SDS011;1953;51.222;6.624;2023-04-25T18:48:50;8.30;;;3.67;;
3875;SDS011;1953;51.222;6.624;2023-04-25T18:53:33;8.07;;;4.20;;
3875;SDS011;1953;51.222;6.624;2023-04-25T18:58:17;12.50;;;4.57;;
3875;SDS011;1953;51.222;6.624;2023-04-25T19:02:59;6.83;;;3.47;;
3875;SDS011;1953;51.222;6.624;2023-04-25T19:07:44;9.90;;;3.87;;
3875;SDS011;1953;51.222;6.624;2023-04-25T19:12:27;11.43;;;3.83;;
3875;SDS011;1953;51.222;6.624;2023-04-25T19:17:09;7.50;;;4.37;;
3875;SDS011;1953;51.222;6.624;2023-04-25T19:21:52;6.73;;;4.20;;
3875;SDS011;1953;51.222;6.624;2023-04-25T19:26:36;12.47;;;3.90;;
3875;SDS011;1953;51.222;6.624;2023-04-25T19:31:19;10.00;;;4.17;;
3875;SDS011;1953;51.222;6.624;2023-04-25T19:36:01;8.00;;;3.83;;
3875;SDS011;1953;51.222;6.624;2023-04-25T19:40:44;8.27;;;3.23;;
3875;SDS011;1953;51.222;6.624;2023-04-25T19:45:28;8.30;;;3.33;;
3875;SDS011;1953;51.222;6.624;2023-04-25T19:50:11;8.37;;;3.57;;
3875;SDS011;1953;51.222;6.624;2023-04-25T19:54:53;6.50;;;3.23;;
3875;SDS011;1953;51.222;6.624;2023-04-25T19:59:41;12.10;;;4.10;;
3875;SDS011;1953;51.222;6.624;2023-04-25T20:04:29;8.17;;;4.50;;
3875;SDS011;1953;51.222;6.624;2023-04-25T20:09:11;8.80;;;3.80;;
3875;SDS011;1953;51.222;6.624;2023-04-25T20:13:54;7.13;;;3.70;;
3875;SDS011;1953;51.222;6.624;2023-04-25T20:18:37;10.73;;;3.60;;
3875;SDS011;1953;51.222;6.624;2023-04-25T20:23:22;8.17;;;3.60;;
3875;SDS011;1953;51.222;6.624;2023-04-25T20:28:05;6.30;;;2.73;;
3875;SDS011;1953;51.222;6.624;2023-04-25T20:32:48;5.53;;;3.10;;
3875;SDS011;1953;51.222;6.624;2023-04-25T20:37:30;6.60;;;3.83;;
3875;SDS011;1953;51.222;6.624;2023-04-25T20:42:14;7.87;;;4.20;;
3875;SDS011;1953;51.222;6.624;2023-04-25T20:46:57;9.67;;;3.13;;
3875;SDS011;1953;51.222;6.624;2023-04-25T20:51:40;4.80;;;2.97;;
3875;SDS011;1953;51.222;6.624;2023-04-25T20:56:23;8.97;;;2.80;;
3875;SDS011;1953;51.222;6.624;2023-04-25T21:01:07;7.13;;;2.80;;
3875;SDS011;1953;51.222;6.624;2023-04-25T21:05:50;6.33;;;3.10;;
3875;SDS011;1953;51.222;6.624;2023-04-25T21:10:32;4.70;;;3.00;;
3875;SDS011;1953;51.222;6.624;2023-04-25T21:15:15;6.37;;;3.10;;
3875;SDS011;1953;51.222;6.624;2023-04-25T21:20:01;9.73;;;3.03;;
3875;SDS011;1953;51.222;6.624;2023-04-25T21:24:49;10.87;;;2.87;;
3875;SDS011;1953;51.222;6.624;2023-04-25T21:29:33;6.67;;;3.30;;
3875;SDS011;1953;51.222;6.624;2023-04-25T21:34:16;5.20;;;3.30;;
3875;SDS011;1953;51.222;6.624;2023-04-25T21:39:00;9.23;;;3.90;;
3875;SDS011;1953;51.222;6.624;2023-04-25T21:43:45;6.77;;;3.27;;
3875;SDS011;1953;51.222;6.624;2023-04-25T21:48:27;9.97;;;3.40;;
3875;SDS011;1953;51.222;6.624;2023-04-25T21:53:10;5.33;;;3.57;;
3875;SDS011;1953;51.222;6.624;2023-04-25T21:57:54;6.63;;;3.80;;
3875;SDS011;1953;51.222;6.624;2023-04-25T22:02:36;6.73;;;3.50;;
3875;SDS011;1953;51.222;6.624;2023-04-25T22:07:19;7.67;;;3.50;;
3875;SDS011;1953;51.222;6.624;2023-04-25T22:12:02;13.57;;;3.60;;
3875;SDS011;1953;51.222;6.624;2023-04-25T22:16:46;6.23;;;3.20;;
3875;SDS011;1953;51.222;6.624;2023-04-25T22:21:29;8.13;;;3.50;;
3875;SDS011;1953;51.222;6.624;2023-04-25T22:26:12;11.57;;;3.30;;
3875;SDS011;1953;51.222;6.624;2023-04-25T22:30:55;13.20;;;3.60;;
3875;SDS011;1953;51.222;6.624;2023-04-25T22:35:39;7.97;;;3.57;;
3875;SDS011;1953;51.222;6.624;2023-04-25T22:40:22;9.63;;;5.10;;
3875;SDS011;1953;51.222;6.624;2023-04-25T22:45:05;11.00;;;4.00;;
3875;SDS011;1953;51.222;6.624;2023-04-25T22:49:49;10.90;;;3.40;;
3875;SDS011;1953;51.222;6.624;2023-04-25T22:54:34;6.80;;;3.40;;
3875;SDS011;1953;51.222;6.624;2023-04-25T22:59:19;10.73;;;4.97;;
3875;SDS011;1953;51.222;6.624;2023-04-25T23:04:01;6.77;;;4.00;;
3875;SDS011;1953;51.222;6.624;2023-04-25T23:08:44;16.90;;;4.47;;
3875;SDS011;1953;51.222;6.624;2023-04-25T23:13:28;13.23;;;4.80;;
3875;SDS011;1953;51.222;6.624;2023-04-25T23:18:11;8.30;;;4.00;;
3875;SDS011;1953;51.222;6.624;2023-04-25T23:22:54;11.67;;;4.20;;
3875;SDS011;1953;51.222;6.624;2023-04-25T23:27:36;9.60;;;4.80;;
3875;SDS011;1953;51.222;6.624;2023-04-25T23:32:20;10.83;;;5.10;;
3875;SDS011;1953;51.222;6.624;2023-04-25T23:37:05;15.73;;;5.83;;
3875;SDS011;1953;51.222;6.624;2023-04-25T23:41:47;9.23;;;5.20;;
3875;SDS011;1953;51.222;6.624;2023-04-25T23:46:30;8.60;;;4.63;;
3875;SDS011;1953;51.222;6.624;2023-04-25T23:51:14;8.10;;;4.60;;
3875;SDS011;1953;51.222;6.624;2023-04-25T23:55:56;11.90;;;5.17;;
